Vicente Ramírez

Scout - Gijón
2 Sep 2027
Donnerstag
Verarbeitung

Persönlichkeit

Anpassungsfähigkeit (4) Ehrgeiz (9) Kontroverse (9) Loyalität (8) Druck (19) Professionalität (19) Fairness (17) Temperament (9)

Profil

Trainerstil Demokratisch
Lizenz Kontinentale B
Entschlossenheit 4
Menschenführung 9
Motivation 12
Disziplin 12
Arbeitszufriedenheit
100%
Ermüdung
0%
Rolle Scout
Gehalt 33.6K p/W
Vertrag 14.03.2030

Leistung

Verhalten Gut
Trainingseffektivität
58%
Spielerentwicklung
30%
Verletzungsprävention
45%
Taktische Umsetzung
65%

Letzte Ereignisse

Nahm an einer Scouting-Besprechung teil 14T her
Nahm an einer Scouting-Besprechung teil 21T her
Nahm an einer Scouting-Besprechung teil 28T her
Nahm an einer Scouting-Besprechung teil 35T her
Nahm an einer Scouting-Besprechung teil 42T her
Nahm an einer Scouting-Besprechung teil 42T her
Nahm an einer Scouting-Besprechung teil 49T her
Nahm an einer Scouting-Besprechung teil 49T her

Aktuell beobachtet

110
Spieler Verein Status Fähigkeit Vertrauen Beobachtet Zuletzt beobachtet Letzte Stimme
Ramiro Buratti River Plate Verloren 87 / 102 40% 1 14.06.2027 -
David Larrubia Málaga Aktiv 138 / 133 40% 3 30.05.2027 -
Caleb Yirenkyi Coventry City Aktiv 140 / 138 40% 3 28.05.2027 -
Yusi Alavés Aktiv 117 / 133 40% 3 26.05.2027 -
Adrián Niño Málaga Aktiv 126 / 125 40% 3 26.05.2027 -
Endrick Real Madrid Aktiv 156 / 153 40% 2 26.05.2027 -
Urko Izeta Cádiz Aktiv 119 / 131 40% 1 26.05.2027 -
Kevin Vazquez Cruz Azul Aktiv 156 / 140 40% 5 23.05.2027 -
Andrés Martín Racing Santander Aktiv 126 / 131 40% 3 23.05.2027 -
Lander Astiazarán Real Sociedad Aktiv 109 / 109 67% 10 22.05.2027 -
Jesús Rodríguez Como Aktiv 144 / 145 40% 1 22.05.2027 -
Jan Virgili Club Brugge Aktiv 120 / 135 40% 4 20.05.2027 -
Yussif Saidu Zaragoza Aktiv 118 / 130 40% 1 20.05.2027 -
Iker Benito Queretaro Aktiv 109 / 125 40% 1 19.05.2027 -
Rodrigo Mora AS Roma Aktiv 141 / 144 40% 2 17.05.2027 -
Senny Mayulu Paris Saint-Germain Aktiv 144 / 150 40% 1 16.05.2027 -
Samir El Mourabet RC Strasbourg Aktiv 116 / 126 40% 1 14.05.2027 -
Ethan Williams Peterborough United Aktiv 105 / 119 40% 4 13.05.2027 -
Jonathan Dubasin Osasuna Aktiv 149 / 145 40% 1 13.05.2027 -
Matt O'Riley Brighton Aktiv 141 / 149 40% 1 13.05.2027 -
Shea Lacey Wolverhampton Aktiv 110 / 124 40% 1 11.05.2027 -
Joel McGregor Swindon Town Aktiv 92 / 99 40% 2 10.05.2027 -
Jon Garro Real Sociedad Aktiv 101 / 96 40% 2 10.05.2027 -
Izan Merino Málaga Aktiv 121 / 126 40% 2 10.05.2027 -
Cyriaque Irié VfL Wolfsburg Aktiv 121 / 123 40% 2 08.05.2027 -
Christ Inao Oulaï Fiorentina Aktiv 144 / 141 40% 1 07.05.2027 -
Warren Zaïre-Emery Paris Saint-Germain Aktiv 163 / 161 40% 5 06.05.2027 -
Jofre Torrents Ajax Aktiv 126 / 127 40% 3 06.05.2027 -
Ali Ahmed Norwich City Aktiv 121 / 126 40% 1 05.05.2027 -
Othmane Maamma Watford Aktiv 116 / 132 40% 5 02.05.2027 -
Matías Gómez Granada Aktiv 117 / 120 40% 2 02.05.2027 -
Diego Lainez Tigres Aktiv 116 / 131 40% 3 01.05.2027 -
Marcel Ruiz RC Lens Aktiv 143 / 142 40% 2 01.05.2027 -
Monty Batlhabane Polokwane City Aktiv 95 / 95 40% 1 27.04.2027 -
Aimar Osasuna Aktiv 144 / 147 40% 1 27.04.2027 -
Tani Oluwaseyi Villarreal Aktiv 143 / 142 40% 2 22.04.2027 -
Lucas Høgsberg RC Strasbourg Aktiv 145 / 144 40% 1 20.04.2027 -
Josh King Chelsea Aktiv 149 / 146 40% 1 19.04.2027 -
David Ozoh Derby County Aktiv 123 / 124 40% 1 16.04.2027 -
Oscar Schwartau Norwich City Aktiv 123 / 126 40% 1 15.04.2027 -
Finn Azaz Southampton Aktiv 136 / 130 40% 1 14.04.2027 -
Thulani Dala Platinum Stars Aktiv 83 / 98 40% 2 11.04.2027 -
Hugo Álvarez Celta Aktiv 157 / 141 40% 1 09.04.2027 -
Bernardes Benfica Aktiv 86 / 102 40% 1 06.04.2027 -
André Miranda Porto Aktiv 102 / 105 40% 1 05.04.2027 -
Jayden Luker Barnet Aktiv 106 / 100 40% 1 04.04.2027 -
Riley Owen Trento Aktiv 104 / 108 40% 1 04.04.2027 -
Erick Sánchez OGC Nice Aktiv 132 / 137 40% 2 01.04.2027 -
Pol Lozano Espanyol Aktiv 131 / 140 40% 1 01.04.2027 -
Ryan Sessegnon Fulham Aktiv 158 / 143 40% 2 30.03.2027 -
Emi Rodriguez Leon Aktiv 134 / 117 40% 1 30.03.2027 -
Louis Leroux FC Nantes Aktiv 114 / 129 40% 1 26.03.2027 -
Olívio Tomé Benfica Aktiv 115 / 111 40% 1 26.03.2027 -
Javi Martínez Eibar Aktiv 131 / 127 40% 1 26.03.2027 -
Carlos Vicente Birmingham Aktiv 136 / 138 40% 1 25.03.2027 -
Jayden Addai Como Aktiv 142 / 135 40% 1 22.03.2027 -
Ozziel Herrera Tigres Aktiv 142 / 131 40% 1 21.03.2027 -
Mfundo Vilakazi Kaizer Chiefs Aktiv 92 / 117 40% 2 20.03.2027 -
Kevin Fulham Aktiv 154 / 152 40% 1 18.03.2027 -
Jan Bürger Gillingham Aktiv 115 / 116 40% 1 17.03.2027 -
Christos Mouzakitis Hull City Aktiv 121 / 140 40% 2 16.03.2027 -
Matvey Kislyak CSKA Moscow Aktiv 123 / 141 40% 1 15.03.2027 -
Khalis Merah Toulouse FC Aktiv 108 / 133 40% 1 14.03.2027 -
Martim Cunha Porto Aktiv 106 / 110 40% 1 12.03.2027 -
Davide Bartesaghi AC Milan Aktiv 134 / 134 40% 1 11.03.2027 -
Daniel Vernattus Metalist Aktiv 81 / 95 40% 1 11.03.2027 -
Duk Atlas Aktiv 106 / 109 40% 1 09.03.2027 -
Ernie Weaver AFC Wimbledon Aktiv 114 / 118 40% 1 08.03.2027 -
Percy Jali Free State Stars Aktiv 92 / 96 40% 1 08.03.2027 -
Marquinhos Spartak Moscow Aktiv 134 / 128 40% 1 03.03.2027 -
Daniel Arcila Leon Aktiv 108 / 112 40% 1 03.03.2027 -
Félix Lemaréchal Club Brugge Aktiv 128 / 136 40% 1 02.03.2027 -
Isaiah Jones Luton Town Aktiv 124 / 121 40% 1 02.03.2027 -
Tshepang Moremi Orlando Pirates Aktiv 130 / 109 40% 1 01.03.2027 -
Tyrhys Dolan Espanyol Aktiv 134 / 141 40% 1 01.03.2027 -
Jonás Luna Santa Clara Aktiv 119 / 126 40% 2 28.02.2027 -
James Dornelly Peterborough United Aktiv 91 / 112 40% 1 23.02.2027 -
Pablo García Racing Santander Aktiv 131 / 130 40% 1 23.02.2027 -
David Mella Deportivo La Coruña Aktiv 134 / 129 40% 1 14.02.2027 -
Kauã Elias Anderlecht Aktiv 124 / 135 40% 1 09.02.2027 -
Gift Hlatshwayo Free State Stars Verloren 100 / 105 40% 1 12.01.2027 -
Didier Mercier Chamois Niortais Aktiv 104 / 120 40% 1 12.01.2027 -
Malick Fofana Sunderland Aktiv 142 / 146 40% 1 31.12.2026 -
Juanlu Bournemouth Aktiv 142 / 149 40% 1 23.12.2026 -
Christian Krasnodar Aktiv 116 / 135 40% 1 21.12.2026 -
Adam Wharton Crystal Palace Aktiv 154 / 156 40% 1 20.12.2026 -
Joaquim Tigres Aktiv 149 / 123 40% 2 19.12.2026 -
Ousmane Diomande Nottingham Forest Aktiv 160 / 152 40% 1 19.12.2026 -
Santiago Simón Toluca Aktiv 114 / 123 40% 1 16.12.2026 -
Tyler Adams Bournemouth Aktiv 156 / 148 40% 1 10.12.2026 -
Omar El Hilali Espanyol Aktiv 153 / 151 40% 1 09.12.2026 -
Facundo Miño Deportivo Riestra Aktiv 108 / 117 40% 1 09.12.2026 -
Diego Campillo Guadalajara Aktiv 110 / 124 40% 1 07.12.2026 -
Richard Ledezma Guadalajara Aktiv 143 / 140 40% 2 06.12.2026 -
Pedro Vite Pumas UNAM Aktiv 131 / 125 40% 3 03.12.2026 -
Noah Sadiki Sunderland Aktiv 150 / 147 40% 1 02.12.2026 -
José Castillo Guadalajara Aktiv 108 / 124 40% 1 02.12.2026 -
Alex Vigo Independiente Rivadavia Aktiv 108 / 115 40% 1 01.12.2026 -
Aarón Mejía Tijuana Aktiv 121 / 124 40% 1 01.12.2026 -
Joaquín García Vélez Aktiv 120 / 122 40% 1 28.11.2026 -
Fran Beltrán Girona Aktiv 137 / 143 40% 1 28.11.2026 -
Omar Campos Cruz Azul Aktiv 105 / 127 40% 1 17.11.2026 -
Víctor Guzmán Monterrey Aktiv 140 / 133 40% 1 05.11.2026 -
Ramón Juárez Club America Aktiv 154 / 129 40% 1 05.11.2026 -
Nazareno Colombo Racing Club Aktiv 131 / 122 40% 1 04.11.2026 -
James Cardona La Equidad Aktiv 145 / 138 40% 1 04.11.2026 -
Pedro Porro Tottenham Aktiv 147 / 147 40% 1 02.11.2026 -
Ramiro Hernandes Belgrano Aktiv 129 / 129 40% 1 25.10.2026 -
Marcos Cuenca Zaragoza Aktiv 116 / 109 44% 1 10.08.2026 -
Yann Bodiger Ceuta Aktiv 106 / 112 44% 1 03.08.2026 -